createdAt,value
2022-11-29T00:00:50.128Z,35.65
2022-11-29T00:01:52.426Z,36.60
2022-11-29T00:02:54.884Z,27.83
2022-11-29T00:03:57.647Z,37.30
2022-11-29T00:04:59.812Z,29.80
2022-11-29T00:06:09.285Z,38.08
2022-11-29T00:07:11.416Z,33.80
2022-11-29T00:08:13.639Z,32.28
2022-11-29T00:09:15.753Z,29.75
2022-11-29T00:10:18.179Z,29.58
2022-11-29T00:11:41.909Z,28.23
2022-11-29T00:12:47.364Z,34.22
2022-11-29T00:13:49.457Z,31.17
2022-11-29T00:14:51.594Z,33.20
2022-11-29T00:15:53.679Z,39.67
2022-11-29T00:17:03.175Z,37.85
2022-11-29T00:18:06.769Z,31.20
2022-11-29T00:19:10.887Z,42.25
2022-11-29T00:20:13.428Z,37.17
2022-11-29T00:21:15.574Z,32.80
2022-11-29T00:22:17.739Z,34.03
2022-11-29T00:23:19.871Z,35.95
2022-11-29T00:24:22.223Z,30.70
2022-11-29T00:25:24.433Z,29.35
2022-11-29T00:26:26.784Z,43.67
2022-11-29T00:27:29.369Z,34.58
2022-11-29T00:28:31.652Z,34.97
2022-11-29T00:29:33.761Z,36.50
2022-11-29T00:30:35.951Z,31.35
2022-11-29T00:31:38.338Z,40.45
2022-11-29T00:32:40.526Z,43.20
2022-11-29T00:33:42.760Z,32.17
2022-11-29T00:34:45.170Z,29.75
2022-11-29T00:35:47.444Z,33.22
2022-11-29T00:36:49.591Z,33.20
2022-11-29T00:37:51.761Z,40.63
2022-11-29T00:38:54.044Z,37.17
2022-11-29T00:39:56.191Z,36.10
2022-11-29T00:40:58.323Z,41.25
2022-11-29T00:42:00.531Z,34.30
2022-11-29T00:43:02.686Z,35.65
2022-11-29T00:44:04.856Z,33.00
2022-11-29T00:45:07.521Z,40.72
2022-11-29T00:46:11.855Z,35.80
2022-11-29T00:47:14.049Z,43.25
2022-11-29T00:48:16.166Z,36.33
2022-11-29T00:49:18.463Z,34.72
2022-11-29T00:50:20.663Z,38.47
2022-11-29T00:51:22.890Z,39.65
2022-11-29T00:52:25.003Z,42.85
2022-11-29T00:53:27.488Z,43.08
2022-11-29T00:54:29.676Z,43.85
2022-11-29T00:55:31.818Z,45.15
2022-11-29T00:56:33.929Z,37.85
2022-11-29T00:57:36.087Z,36.13
2022-11-29T00:58:38.402Z,43.33
2022-11-29T00:59:40.541Z,40.75
2022-11-29T01:00:42.789Z,39.67
2022-11-29T01:01:44.964Z,37.40
2022-11-29T01:02:47.233Z,44.58
2022-11-29T01:03:49.523Z,43.35
2022-11-29T01:04:51.659Z,56.22
2022-11-29T01:06:18.446Z,40.90
2022-11-29T01:07:20.663Z,38.40
2022-11-29T01:08:22.868Z,43.47
2022-11-29T01:09:25.018Z,47.10
2022-11-29T01:10:27.568Z,46.92
2022-11-29T01:11:29.782Z,41.95
2022-11-29T01:12:36.647Z,46.05
2022-11-29T01:13:39.442Z,42.83
2022-11-29T01:14:41.942Z,35.15
2022-11-29T01:15:44.217Z,47.30
2022-11-29T01:16:46.444Z,43.35
2022-11-29T01:17:49.420Z,41.50
2022-11-29T01:18:51.667Z,47.50
2022-11-29T01:19:53.976Z,47.10
2022-11-29T01:21:06.615Z,44.15
2022-11-29T01:22:08.814Z,42.97
2022-11-29T01:23:10.939Z,53.83
2022-11-29T01:24:13.059Z,44.58
2022-11-29T01:25:15.494Z,47.22
2022-11-29T01:26:21.298Z,57.92
2022-11-29T01:27:23.454Z,50.03
2022-11-29T01:28:26.142Z,45.25
2022-11-29T01:29:28.250Z,58.47
2022-11-29T01:30:30.452Z,49.58
2022-11-29T01:31:37.480Z,55.40
2022-11-29T01:32:39.649Z,50.67
2022-11-29T01:33:42.454Z,50.58
2022-11-29T01:34:44.855Z,44.85
2022-11-29T01:35:54.595Z,39.35
2022-11-29T01:36:56.750Z,49.28
2022-11-29T01:37:58.872Z,49.20
2022-11-29T01:39:02.823Z,53.33
2022-11-29T01:40:05.710Z,52.97
2022-11-29T01:41:12.860Z,46.72
2022-11-29T01:42:15.208Z,51.63
2022-11-29T01:43:18.469Z,41.25
2022-11-29T01:44:20.772Z,43.35
2022-11-29T01:45:26.342Z,55.50
2022-11-29T01:46:30.680Z,46.20
2022-11-29T01:47:33.856Z,52.55
2022-11-29T01:48:36.001Z,49.78
2022-11-29T01:49:42.147Z,42.28
2022-11-29T01:50:44.373Z,40.38
2022-11-29T01:51:51.636Z,50.60
2022-11-29T01:52:53.800Z,52.30
2022-11-29T01:53:57.069Z,50.72
2022-11-29T01:55:03.873Z,53.55
2022-11-29T01:56:07.502Z,46.20
2022-11-29T01:57:10.336Z,56.70
2022-11-29T01:58:12.803Z,46.13
2022-11-29T01:59:19.222Z,52.20
2022-11-29T02:00:21.766Z,54.13
2022-11-29T02:01:24.239Z,43.17
2022-11-29T02:02:35.406Z,39.55
2022-11-29T02:03:37.648Z,43.35
2022-11-29T02:04:43.427Z,39.85
2022-11-29T02:05:50.235Z,52.90
2022-11-29T02:06:52.365Z,55.08
2022-11-29T02:07:57.829Z,38.17
2022-11-29T02:09:00.247Z,38.90
2022-11-29T02:10:02.966Z,44.30
2022-11-29T02:11:27.591Z,48.50
2022-11-29T02:12:44.621Z,41.70
2022-11-29T02:14:05.303Z,39.00
2022-11-29T02:15:13.547Z,45.92
2022-11-29T02:16:31.998Z,42.95
2022-11-29T02:17:43.092Z,37.55
2022-11-29T02:19:03.827Z,51.30
2022-11-29T02:20:14.850Z,44.38
2022-11-29T02:21:48.107Z,50.70
2022-11-29T02:22:53.200Z,39.15
2022-11-29T02:24:30.061Z,63.30
2022-11-29T02:25:35.083Z,52.28
2022-11-29T02:26:55.352Z,49.63
2022-11-29T02:28:35.802Z,42.22
2022-11-29T02:29:46.902Z,40.42
2022-11-29T02:31:20.281Z,42.50
2022-11-29T02:32:34.481Z,53.22
2022-11-29T02:33:55.291Z,46.50
2022-11-29T02:35:20.441Z,54.75
2022-11-29T02:37:18.150Z,50.50
2022-11-29T02:38:45.169Z,55.15
2022-11-29T02:40:09.692Z,44.92
2022-11-29T02:41:36.908Z,48.08
2022-11-29T02:43:05.839Z,56.60
2022-11-29T02:44:22.983Z,48.50
2022-11-29T02:45:58.499Z,55.80
2022-11-29T02:47:28.786Z,53.40
2022-11-29T02:49:09.776Z,51.00
2022-11-29T02:50:11.941Z,54.03
2022-11-29T02:51:35.798Z,68.28
2022-11-29T02:53:02.928Z,47.35
2022-11-29T02:54:20.457Z,50.67
2022-11-29T02:55:34.618Z,46.20
2022-11-29T02:56:53.887Z,53.53
2022-11-29T02:58:14.108Z,47.90
2022-11-29T02:59:34.136Z,47.78
2022-11-29T03:00:46.848Z,53.08
2022-11-29T03:02:03.165Z,56.05
2022-11-29T03:03:05.309Z,43.00
2022-11-29T03:04:34.948Z,58.58
2022-11-29T03:05:51.281Z,51.97
2022-11-29T03:07:34.554Z,66.10
2022-11-29T03:08:51.560Z,53.97
2022-11-29T03:10:05.160Z,49.92
2022-11-29T03:11:20.652Z,64.65
2022-11-29T03:12:45.823Z,54.33
2022-11-29T03:13:51.405Z,60.63
2022-11-29T03:14:59.397Z,56.75
2022-11-29T03:16:13.562Z,53.53
2022-11-29T03:17:34.260Z,66.50
2022-11-29T03:18:56.269Z,66.13
2022-11-29T03:20:35.829Z,54.97
2022-11-29T03:21:49.509Z,62.95
2022-11-29T03:23:09.707Z,51.80
2022-11-29T03:24:37.252Z,45.58
2022-11-29T03:25:45.921Z,97.88
2022-11-29T03:26:56.102Z,57.03
2022-11-29T03:28:11.146Z,69.15
2022-11-29T03:29:55.049Z,46.47
2022-11-29T03:31:29.433Z,48.70
2022-11-29T03:33:04.012Z,54.38
2022-11-29T03:34:11.530Z,47.00
2022-11-29T03:35:30.797Z,54.75
2022-11-29T03:36:45.387Z,57.60
2022-11-29T03:38:08.835Z,56.42
2022-11-29T03:39:19.137Z,46.15
2022-11-29T03:40:34.854Z,50.58
2022-11-29T03:42:02.241Z,49.80
2022-11-29T03:43:09.460Z,48.60
2022-11-29T03:44:40.382Z,58.40
2022-11-29T03:46:10.941Z,56.97
2022-11-29T03:47:17.334Z,46.88
2022-11-29T03:48:31.691Z,49.53
2022-11-29T03:49:52.000Z,64.63
2022-11-29T03:50:57.634Z,49.63
2022-11-29T03:52:19.545Z,61.35
2022-11-29T03:53:46.166Z,56.22
2022-11-29T03:55:03.470Z,48.72
2022-11-29T03:56:28.861Z,51.38
2022-11-29T03:57:45.212Z,46.85
2022-11-29T03:59:05.967Z,55.33
2022-11-29T04:00:10.747Z,59.95
2022-11-29T04:01:21.776Z,56.63
2022-11-29T04:03:01.011Z,80.20
2022-11-29T04:04:33.934Z,68.35
2022-11-29T04:06:02.656Z,82.85
2022-11-29T04:07:14.851Z,57.67
2022-11-29T04:08:54.239Z,59.28
2022-11-29T04:10:18.057Z,50.10
2022-11-29T04:11:54.641Z,53.00
2022-11-29T04:13:02.942Z,67.82
2022-11-29T04:14:34.793Z,47.83
2022-11-29T04:15:55.348Z,53.75
2022-11-29T04:17:24.822Z,54.40
2022-11-29T04:18:43.805Z,53.85
2022-11-29T04:20:07.705Z,51.30
2022-11-29T04:21:32.714Z,56.28
2022-11-29T04:22:43.669Z,57.85
2022-11-29T04:25:16.318Z,53.90
2022-11-29T04:26:24.215Z,73.50
2022-11-29T04:27:48.566Z,60.60
2022-11-29T04:29:11.445Z,52.85
2022-11-29T04:30:18.994Z,60.17
2022-11-29T04:31:33.400Z,90.80
2022-11-29T04:32:41.212Z,62.95
2022-11-29T04:34:20.489Z,56.88
2022-11-29T04:36:07.686Z,49.25
2022-11-29T04:37:18.603Z,52.55
2022-11-29T04:39:59.385Z,84.80
2022-11-29T04:41:01.472Z,52.05
2022-11-29T04:42:15.412Z,57.10
2022-11-29T04:43:29.735Z,70.00
2022-11-29T04:44:46.398Z,48.90
2022-11-29T04:45:57.636Z,64.20
2022-11-29T04:47:11.698Z,87.80
2022-11-29T04:48:25.331Z,74.43
2022-11-29T04:49:57.152Z,51.15
2022-11-29T04:50:59.272Z,54.15
2022-11-29T04:52:29.793Z,66.25
2022-11-29T04:53:53.521Z,86.95
2022-11-29T04:55:08.119Z,65.65
2022-11-29T04:56:31.221Z,64.25
2022-11-29T04:57:44.931Z,50.63
2022-11-29T04:59:05.834Z,59.22
2022-11-29T05:00:15.547Z,56.95
2022-11-29T05:01:48.081Z,54.47
2022-11-29T05:02:59.289Z,52.80
2022-11-29T05:04:43.658Z,49.35
2022-11-29T05:05:59.186Z,59.65
2022-11-29T05:07:16.101Z,58.50
2022-11-29T05:08:45.217Z,69.57
2022-11-29T05:10:32.283Z,60.28
2022-11-29T05:11:55.925Z,48.28
2022-11-29T05:13:34.117Z,52.65
2022-11-29T05:14:54.703Z,67.80
2022-11-29T05:16:15.702Z,74.72
2022-11-29T05:17:50.503Z,62.22
2022-11-29T05:19:17.294Z,55.65
2022-11-29T05:20:40.999Z,64.90
2022-11-29T05:21:49.041Z,77.90
2022-11-29T05:23:09.915Z,85.25
2022-11-29T05:24:19.292Z,60.20
2022-11-29T05:25:49.555Z,60.00
2022-11-29T05:27:15.272Z,84.43
2022-11-29T05:28:32.598Z,49.10
2022-11-29T05:29:46.211Z,69.25
2022-11-29T05:31:00.250Z,62.20
2022-11-29T05:32:32.553Z,86.45
2022-11-29T05:33:47.457Z,77.30
2022-11-29T05:34:52.081Z,57.05
2022-11-29T05:36:07.963Z,67.85
2022-11-29T05:37:37.294Z,79.07
2022-11-29T05:38:50.553Z,49.85
2022-11-29T05:40:14.670Z,56.55
2022-11-29T05:41:35.685Z,56.45
2022-11-29T05:43:55.521Z,57.42
2022-11-29T05:45:14.429Z,52.60
2022-11-29T05:46:42.884Z,63.88
2022-11-29T05:47:57.560Z,49.65
2022-11-29T05:49:21.226Z,59.97
2022-11-29T05:50:37.945Z,61.30
2022-11-29T05:52:16.647Z,48.65
2022-11-29T05:53:28.027Z,46.00
2022-11-29T05:54:37.973Z,52.40
2022-11-29T05:55:51.924Z,51.10
2022-11-29T05:57:35.624Z,53.63
2022-11-29T05:58:55.934Z,53.72
2022-11-29T06:00:01.137Z,62.95
2022-11-29T06:01:21.685Z,56.65
2022-11-29T06:02:26.644Z,54.72
2022-11-29T06:03:47.128Z,51.60
2022-11-29T06:05:15.505Z,68.72
2022-11-29T06:06:47.986Z,70.18
2022-11-29T06:08:17.999Z,61.85
2022-11-29T06:09:35.324Z,65.88
2022-11-29T06:10:40.554Z,50.75
2022-11-29T06:11:48.647Z,62.15
2022-11-29T06:13:15.701Z,51.42
2022-11-29T06:15:16.389Z,60.40
2022-11-29T06:16:27.807Z,57.13
2022-11-29T06:17:48.872Z,50.05
2022-11-29T06:19:58.802Z,46.20
2022-11-29T06:21:30.540Z,56.10
2022-11-29T06:22:57.338Z,59.20
2022-11-29T06:24:25.538Z,61.47
2022-11-29T06:25:53.305Z,61.28
2022-11-29T06:27:10.467Z,58.13
2022-11-29T06:28:24.803Z,53.03
2022-11-29T06:29:39.295Z,57.00
2022-11-29T06:31:23.063Z,54.95
2022-11-29T06:32:34.070Z,75.05
2022-11-29T06:34:51.753Z,49.78
2022-11-29T06:36:23.172Z,50.50
2022-11-29T06:37:34.563Z,80.07
2022-11-29T06:38:37.193Z,58.15
2022-11-29T06:39:39.514Z,61.70
2022-11-29T06:40:42.077Z,68.88
2022-11-29T06:41:44.837Z,52.45
2022-11-29T06:42:48.879Z,68.97
2022-11-29T06:43:51.556Z,59.83
2022-11-29T06:44:54.006Z,55.42
2022-11-29T06:46:05.242Z,48.53
2022-11-29T06:47:17.921Z,57.75
2022-11-29T06:48:27.455Z,60.85
2022-11-29T06:49:43.318Z,62.47
2022-11-29T06:51:03.232Z,45.92
2022-11-29T06:52:20.249Z,49.53
2022-11-29T06:53:31.232Z,53.03
2022-11-29T06:55:15.403Z,45.58
2022-11-29T06:56:33.028Z,45.03
2022-11-29T06:57:47.420Z,55.55
2022-11-29T06:59:20.595Z,53.35
2022-11-29T07:00:27.091Z,47.40
2022-11-29T07:01:51.680Z,46.53
2022-11-29T07:03:22.706Z,54.08
2022-11-29T07:04:31.329Z,62.90
2022-11-29T07:05:35.138Z,50.97
2022-11-29T07:06:37.529Z,50.53
2022-11-29T07:07:41.194Z,44.08
2022-11-29T07:08:45.197Z,50.75
2022-11-29T07:09:49.607Z,61.03
2022-11-29T07:10:54.874Z,52.13
2022-11-29T07:11:57.452Z,54.28
2022-11-29T07:12:59.864Z,61.58
2022-11-29T07:14:02.332Z,60.42
2022-11-29T07:15:05.078Z,54.17
2022-11-29T07:16:31.608Z,46.92
2022-11-29T07:17:45.144Z,59.10
2022-11-29T07:18:53.899Z,50.58
2022-11-29T07:20:04.792Z,61.17
2022-11-29T07:22:40.799Z,50.38
2022-11-29T07:24:02.744Z,55.65
2022-11-29T07:25:23.249Z,61.03
2022-11-29T07:26:59.413Z,62.85
2022-11-29T07:28:11.345Z,52.88
2022-11-29T07:29:23.955Z,51.78
2022-11-29T07:30:51.066Z,49.55
2022-11-29T07:32:14.351Z,60.60
2022-11-29T07:33:54.912Z,54.90
2022-11-29T07:35:17.615Z,55.17
2022-11-29T07:36:40.925Z,57.90
2022-11-29T07:38:24.334Z,62.10
2022-11-29T07:39:59.527Z,60.42
2022-11-29T07:41:11.815Z,56.38
2022-11-29T07:42:31.352Z,51.80
2022-11-29T07:44:01.362Z,62.20
2022-11-29T07:45:27.570Z,68.57
2022-11-29T07:46:30.113Z,53.30
2022-11-29T07:47:35.705Z,57.00
2022-11-29T07:48:38.459Z,58.08
2022-11-29T07:49:40.910Z,73.60
2022-11-29T07:50:43.917Z,63.78
2022-11-29T07:51:46.123Z,61.97
2022-11-29T07:52:49.112Z,62.38
2022-11-29T07:53:51.260Z,63.03
2022-11-29T07:54:53.416Z,59.47
2022-11-29T07:55:55.686Z,66.80
2022-11-29T07:56:57.842Z,58.70
2022-11-29T07:58:00.113Z,66.97
2022-11-29T07:59:02.701Z,57.17
2022-11-29T08:00:05.853Z,66.70
2022-11-29T08:01:13.649Z,64.40
2022-11-29T08:02:26.441Z,59.00
2022-11-29T08:03:29.220Z,59.40
2022-11-29T08:04:31.424Z,67.05
2022-11-29T08:05:33.704Z,59.90
2022-11-29T08:06:36.341Z,66.65
2022-11-29T08:07:40.165Z,53.22
2022-11-29T08:08:44.115Z,64.50
2022-11-29T08:09:46.821Z,57.60
2022-11-29T08:10:49.329Z,61.22
2022-11-29T08:11:51.600Z,60.88
2022-11-29T08:12:54.335Z,60.58
2022-11-29T08:13:58.496Z,61.33
2022-11-29T08:15:00.893Z,56.88
2022-11-29T08:16:03.369Z,64.00
2022-11-29T08:17:05.613Z,72.00
2022-11-29T08:18:07.733Z,62.63
2022-11-29T08:19:09.842Z,67.25
2022-11-29T08:20:13.373Z,71.35
2022-11-29T08:21:18.091Z,46.38
2022-11-29T08:22:20.357Z,63.65
2022-11-29T08:23:22.527Z,55.35
2022-11-29T08:24:26.242Z,64.50
2022-11-29T08:25:28.399Z,57.78
2022-11-29T08:26:31.771Z,60.00
2022-11-29T08:27:35.831Z,68.53
2022-11-29T08:28:38.403Z,58.78
2022-11-29T08:29:40.603Z,65.60
2022-11-29T08:30:42.757Z,51.88
2022-11-29T08:31:45.430Z,66.95
2022-11-29T08:32:51.373Z,65.45
2022-11-29T08:33:53.954Z,61.25
2022-11-29T08:34:56.082Z,58.08
2022-11-29T08:36:08.211Z,76.07
2022-11-29T08:37:10.492Z,59.10
2022-11-29T08:38:12.678Z,60.97
2022-11-29T08:39:14.830Z,68.22
2022-11-29T08:40:17.472Z,60.95
2022-11-29T08:41:19.594Z,70.55
2022-11-29T08:42:21.779Z,55.03
2022-11-29T08:43:23.907Z,48.67
2022-11-29T08:44:26.133Z,70.68
2022-11-29T08:45:28.425Z,56.40
2022-11-29T08:46:50.480Z,67.00
2022-11-29T08:47:52.593Z,64.32
2022-11-29T08:48:54.697Z,60.20
2022-11-29T08:50:02.833Z,77.18
2022-11-29T08:51:06.489Z,57.90
2022-11-29T08:52:26.949Z,64.68
2022-11-29T08:53:44.729Z,50.95
2022-11-29T08:54:47.137Z,58.55
2022-11-29T08:55:50.488Z,57.63
2022-11-29T08:58:15.595Z,57.15
2022-11-29T08:59:17.782Z,73.38
2022-11-29T09:00:21.315Z,73.82
2022-11-29T09:01:23.719Z,60.42
2022-11-29T09:02:25.924Z,59.33
2022-11-29T09:03:46.350Z,59.17
2022-11-29T09:04:48.537Z,51.97
2022-11-29T09:05:50.963Z,59.53
2022-11-29T09:06:53.133Z,60.78
2022-11-29T09:07:55.483Z,53.85
2022-11-29T09:08:58.171Z,60.03
2022-11-29T09:10:05.019Z,53.92
2022-11-29T09:11:09.338Z,57.53
2022-11-29T09:12:11.927Z,50.80
2022-11-29T09:13:14.885Z,50.80
2022-11-29T09:14:17.783Z,50.40
2022-11-29T09:15:20.325Z,48.55
2022-11-29T09:16:25.568Z,52.70
2022-11-29T09:17:28.183Z,49.65
2022-11-29T09:18:30.663Z,62.75
2022-11-29T09:19:33.305Z,44.53
2022-11-29T09:20:35.697Z,46.05
2022-11-29T09:21:38.079Z,48.35
2022-11-29T09:22:40.645Z,49.72
2022-11-29T09:23:44.054Z,46.50
2022-11-29T09:24:47.401Z,42.58
2022-11-29T09:25:49.957Z,47.13
2022-11-29T09:26:52.100Z,48.95
2022-11-29T09:27:57.263Z,42.28
2022-11-29T09:29:03.726Z,42.97
2022-11-29T09:30:06.615Z,44.60
2022-11-29T09:31:12.363Z,39.17
2022-11-29T09:32:14.539Z,41.85
2022-11-29T09:33:17.133Z,40.10
2022-11-29T09:34:19.359Z,37.20
2022-11-29T09:35:21.631Z,43.65
2022-11-29T09:36:28.397Z,42.63
2022-11-29T09:37:31.533Z,40.55
2022-11-29T09:38:34.851Z,35.80
2022-11-29T09:39:37.019Z,36.38
2022-11-29T09:40:46.885Z,44.70
2022-11-29T09:42:27.221Z,44.83
2022-11-29T09:43:44.232Z,30.08
2022-11-29T09:44:55.373Z,36.33
2022-11-29T09:46:06.932Z,42.42
2022-11-29T09:47:15.050Z,34.08
2022-11-29T09:48:20.251Z,34.08
2022-11-29T09:50:01.100Z,34.08
2022-11-29T09:51:25.537Z,34.38
2022-11-29T09:52:52.324Z,34.90
2022-11-29T09:54:11.384Z,40.85
2022-11-29T09:55:16.257Z,29.58
2022-11-29T09:56:38.767Z,35.72
2022-11-29T09:57:43.951Z,29.95
2022-11-29T09:58:52.890Z,34.45
2022-11-29T10:00:01.790Z,35.65
2022-11-29T10:01:09.471Z,37.10
2022-11-29T10:02:21.972Z,31.90
2022-11-29T10:03:40.022Z,32.80
2022-11-29T10:04:47.991Z,30.38
2022-11-29T10:05:57.419Z,33.90
2022-11-29T10:07:38.240Z,26.27
2022-11-29T10:08:46.093Z,25.02
2022-11-29T10:09:55.319Z,34.80
2022-11-29T10:11:12.171Z,32.13
2022-11-29T10:12:31.786Z,30.08
2022-11-29T10:13:35.903Z,28.50
2022-11-29T10:14:57.718Z,31.95
2022-11-29T10:16:09.992Z,27.25
2022-11-29T10:17:18.604Z,31.70
2022-11-29T10:18:38.496Z,29.00
2022-11-29T10:19:50.740Z,33.90
2022-11-29T10:20:58.464Z,32.47
2022-11-29T10:22:24.922Z,25.58
2022-11-29T10:23:41.825Z,33.10
2022-11-29T10:24:49.752Z,29.77
2022-11-29T10:25:54.225Z,29.42
2022-11-29T10:26:56.591Z,27.70
2022-11-29T10:27:59.086Z,24.35
2022-11-29T10:29:01.379Z,27.27
2022-11-29T10:30:06.451Z,34.03
2022-11-29T10:31:19.300Z,23.50
2022-11-29T10:32:25.388Z,27.25
2022-11-29T10:33:32.700Z,30.30
2022-11-29T10:34:35.177Z,21.63
2022-11-29T10:35:37.614Z,25.27
2022-11-29T10:36:44.628Z,23.95
2022-11-29T10:38:07.615Z,24.98
2022-11-29T10:39:37.214Z,22.88
2022-11-29T10:40:42.019Z,27.67
2022-11-29T10:41:44.309Z,30.88
2022-11-29T10:42:49.674Z,28.55
2022-11-29T10:43:54.407Z,21.17
2022-11-29T10:44:58.224Z,21.23
2022-11-29T10:46:02.417Z,26.40
2022-11-29T10:47:10.516Z,23.17
2022-11-29T10:48:17.255Z,29.50
2022-11-29T10:49:23.622Z,22.40
2022-11-29T10:50:27.964Z,24.83
2022-11-29T10:51:31.482Z,28.85
2022-11-29T10:52:33.919Z,25.58
2022-11-29T10:53:37.473Z,29.50
2022-11-29T10:54:42.564Z,24.45
2022-11-29T10:55:59.115Z,26.40
2022-11-29T10:57:02.282Z,21.85
2022-11-29T10:58:28.402Z,25.90
2022-11-29T10:59:33.001Z,25.75
2022-11-29T11:00:52.746Z,25.25
2022-11-29T11:01:55.820Z,25.70
2022-11-29T11:03:16.919Z,25.13
2022-11-29T11:05:29.279Z,20.27
2022-11-29T11:06:51.472Z,27.55
2022-11-29T11:07:58.666Z,25.65
2022-11-29T11:09:31.649Z,25.23
2022-11-29T11:10:33.833Z,28.02
2022-11-29T11:11:36.023Z,33.97
2022-11-29T11:12:38.203Z,24.23
2022-11-29T11:13:41.883Z,31.00
2022-11-29T11:14:45.401Z,28.83
2022-11-29T11:15:47.994Z,21.88
2022-11-29T11:16:51.161Z,29.58
2022-11-29T11:18:04.747Z,27.25
2022-11-29T11:19:39.176Z,27.73
2022-11-29T11:20:42.426Z,28.90
2022-11-29T11:21:44.600Z,28.90
2022-11-29T11:23:02.405Z,24.85
2022-11-29T11:24:04.651Z,24.65
2022-11-29T11:25:31.564Z,28.63
2022-11-29T11:26:45.248Z,25.98
2022-11-29T11:27:47.787Z,27.17
2022-11-29T11:28:54.824Z,35.03
2022-11-29T11:29:57.738Z,25.67
2022-11-29T11:31:04.500Z,29.92
2022-11-29T11:32:19.997Z,27.45
2022-11-29T11:33:24.865Z,27.52
2022-11-29T11:34:31.705Z,26.30
2022-11-29T11:35:34.075Z,29.48
2022-11-29T11:36:36.293Z,28.63
2022-11-29T11:37:38.426Z,27.85
2022-11-29T11:38:53.984Z,24.15
2022-11-29T11:39:59.172Z,32.83
2022-11-29T11:41:03.435Z,28.30
2022-11-29T11:42:24.417Z,24.83
2022-11-29T11:43:26.696Z,22.95
2022-11-29T11:44:53.382Z,30.27
2022-11-29T11:45:55.784Z,25.15
2022-11-29T11:47:00.045Z,28.45
2022-11-29T11:48:13.668Z,26.27
2022-11-29T11:49:45.828Z,28.05
2022-11-29T11:50:57.458Z,27.52
2022-11-29T11:52:03.341Z,33.80
2022-11-29T11:53:18.310Z,24.67
2022-11-29T11:54:20.819Z,23.60
2022-11-29T11:55:43.386Z,27.92
2022-11-29T11:56:45.640Z,26.65
2022-11-29T11:58:10.314Z,27.23
2022-11-29T11:59:21.271Z,33.53
2022-11-29T12:02:25.340Z,30.17
2022-11-29T12:03:43.876Z,27.95
2022-11-29T12:04:46.515Z,25.65
2022-11-29T12:05:51.415Z,31.00
2022-11-29T12:06:57.237Z,28.80
2022-11-29T12:08:10.010Z,29.02
2022-11-29T12:09:34.384Z,22.45
2022-11-29T12:10:40.453Z,27.58
2022-11-29T12:12:07.673Z,35.92
2022-11-29T12:13:21.134Z,36.10
2022-11-29T12:14:47.336Z,25.38
2022-11-29T12:15:50.950Z,32.33
2022-11-29T12:17:14.322Z,28.60
2022-11-29T12:18:30.813Z,25.67
2022-11-29T12:19:41.809Z,28.77
2022-11-29T12:21:13.098Z,27.55
2022-11-29T12:22:22.314Z,25.40
2022-11-29T12:23:46.505Z,26.80
2022-11-29T12:24:57.072Z,27.52
2022-11-29T12:26:06.583Z,36.70
2022-11-29T12:27:14.406Z,30.38
2022-11-29T12:28:20.850Z,31.27
2022-11-29T12:29:25.833Z,29.70
2022-11-29T12:30:28.135Z,27.08
2022-11-29T12:31:32.870Z,29.98
2022-11-29T12:32:52.199Z,31.77
2022-11-29T12:34:06.573Z,32.50
2022-11-29T12:35:50.262Z,30.58
2022-11-29T12:37:04.397Z,31.42
2022-11-29T12:38:09.273Z,25.42
2022-11-29T12:39:30.064Z,26.80
2022-11-29T12:40:57.324Z,27.88
2022-11-29T12:42:14.241Z,35.88
2022-11-29T12:43:31.555Z,30.33
2022-11-29T12:44:48.585Z,32.88
2022-11-29T12:46:15.127Z,32.95
2022-11-29T12:48:57.864Z,37.28
2022-11-29T12:50:12.772Z,41.10
2022-11-29T12:51:52.329Z,31.83
2022-11-29T12:53:11.261Z,33.65
2022-11-29T12:54:40.977Z,34.80
2022-11-29T12:56:18.772Z,33.80
2022-11-29T12:57:24.052Z,36.40
2022-11-29T12:58:51.367Z,30.75
2022-11-29T13:00:11.315Z,33.22
2022-11-29T13:01:51.146Z,27.63
2022-11-29T13:03:08.942Z,26.35
2022-11-29T13:05:24.943Z,29.23
2022-11-29T13:06:38.683Z,26.00
2022-11-29T13:08:08.237Z,33.88
2022-11-29T13:09:28.205Z,34.97
2022-11-29T13:10:46.013Z,33.25
2022-11-29T13:11:56.533Z,29.38
2022-11-29T13:13:04.841Z,31.90
2022-11-29T13:14:42.629Z,38.20
2022-11-29T13:16:08.215Z,30.20
2022-11-29T13:17:29.286Z,29.88
2022-11-29T13:19:53.361Z,32.45
2022-11-29T13:21:04.691Z,33.17
2022-11-29T13:22:19.873Z,32.53
2022-11-29T13:23:45.603Z,39.15
2022-11-29T13:25:01.679Z,38.05
2022-11-29T13:26:09.856Z,31.70
2022-11-29T13:27:19.018Z,33.58
2022-11-29T13:28:27.735Z,28.77
2022-11-29T13:29:30.679Z,30.88
2022-11-29T13:30:35.079Z,33.17
2022-11-29T13:31:38.931Z,32.05
2022-11-29T13:32:53.060Z,30.00
2022-11-29T13:34:08.266Z,27.48
2022-11-29T13:35:28.981Z,35.03
2022-11-29T13:37:16.126Z,28.60
2022-11-29T13:38:21.238Z,30.80
2022-11-29T13:39:55.839Z,27.33
2022-11-29T13:41:02.327Z,24.95
2022-11-29T13:42:13.382Z,29.55
2022-11-29T13:43:41.198Z,34.08
2022-11-29T13:44:51.252Z,30.08
2022-11-29T13:46:14.167Z,27.42
2022-11-29T13:47:18.321Z,28.40
2022-11-29T13:48:48.634Z,31.90
2022-11-29T13:49:57.206Z,28.70
2022-11-29T13:51:33.156Z,29.45
2022-11-29T13:52:43.137Z,26.42
2022-11-29T13:53:48.841Z,25.88
2022-11-29T13:55:15.453Z,29.02
2022-11-29T13:56:36.013Z,28.90
2022-11-29T13:58:14.341Z,27.23
2022-11-29T13:59:19.340Z,25.17
2022-11-29T14:00:43.905Z,24.50
2022-11-29T14:01:51.640Z,20.08
2022-11-29T14:02:55.583Z,20.95
2022-11-29T14:04:07.361Z,31.10
2022-11-29T14:05:25.237Z,22.77
2022-11-29T14:06:36.232Z,26.67
2022-11-29T14:08:18.145Z,28.75
2022-11-29T14:09:29.036Z,32.35
2022-11-29T14:11:50.017Z,24.63
2022-11-29T14:12:56.847Z,27.58
2022-11-29T14:14:24.394Z,35.42
2022-11-29T14:15:29.351Z,28.02
2022-11-29T14:16:34.825Z,25.80
2022-11-29T14:17:43.101Z,26.88
2022-11-29T14:18:47.356Z,28.92
2022-11-29T14:19:49.490Z,28.60
2022-11-29T14:20:56.301Z,31.17
2022-11-29T14:22:07.548Z,24.58
2022-11-29T14:23:12.458Z,23.20
2022-11-29T14:24:35.298Z,23.33
2022-11-29T14:25:56.283Z,28.00
2022-11-29T14:28:23.046Z,27.80
2022-11-29T14:29:53.937Z,24.83
2022-11-29T14:31:09.044Z,33.13
2022-11-29T14:32:21.245Z,30.88
2022-11-29T14:33:50.981Z,28.73
2022-11-29T14:35:08.063Z,33.70
2022-11-29T14:36:18.743Z,26.75
2022-11-29T14:37:33.879Z,29.17
2022-11-29T14:38:47.512Z,25.45
2022-11-29T14:39:54.952Z,27.88
2022-11-29T14:41:24.948Z,29.08
2022-11-29T14:42:28.360Z,22.25
2022-11-29T14:43:36.643Z,32.47
2022-11-29T14:44:45.638Z,25.92
2022-11-29T14:46:06.124Z,27.27
2022-11-29T14:47:20.366Z,27.73
2022-11-29T14:48:31.732Z,29.73
2022-11-29T14:49:43.456Z,29.73
2022-11-29T14:50:45.623Z,36.42
2022-11-29T14:52:15.279Z,26.85
2022-11-29T14:53:34.173Z,32.55
2022-11-29T14:54:54.352Z,29.80
2022-11-29T14:56:35.191Z,26.27
2022-11-29T14:58:03.742Z,32.17
2022-11-29T14:59:43.285Z,29.73
2022-11-29T15:00:48.183Z,28.23
2022-11-29T15:01:50.493Z,34.55
2022-11-29T15:03:11.036Z,26.27
2022-11-29T15:04:13.526Z,23.98
2022-11-29T15:05:18.579Z,28.50
2022-11-29T15:06:26.775Z,20.85
2022-11-29T15:07:31.891Z,22.80
2022-11-29T15:08:41.848Z,21.33
2022-11-29T15:09:49.594Z,25.83
2022-11-29T15:10:57.006Z,23.65
2022-11-29T15:12:03.184Z,27.02
2022-11-29T15:13:06.920Z,29.00
2022-11-29T15:14:43.385Z,28.00
2022-11-29T15:16:05.785Z,24.15
2022-11-29T15:17:25.358Z,22.48
2022-11-29T15:18:46.817Z,23.60
2022-11-29T15:20:16.465Z,24.15
2022-11-29T15:21:35.859Z,27.05
2022-11-29T15:22:54.694Z,25.70
2022-11-29T15:24:06.799Z,21.27
2022-11-29T15:25:18.034Z,26.23
2022-11-29T15:26:21.154Z,24.30
2022-11-29T15:27:24.223Z,22.42
2022-11-29T15:28:28.773Z,26.55
2022-11-29T15:29:31.744Z,24.40
2022-11-29T15:30:39.280Z,19.10
2022-11-29T15:31:43.294Z,20.02
2022-11-29T15:32:46.362Z,25.33
2022-11-29T15:33:49.752Z,23.92
2022-11-29T15:34:54.561Z,31.85
2022-11-29T15:36:05.395Z,35.38
2022-11-29T15:38:24.337Z,29.05
2022-11-29T15:39:32.818Z,22.98
2022-11-29T15:40:37.043Z,23.88
2022-11-29T15:41:41.214Z,23.88
2022-11-29T15:42:53.279Z,23.38
2022-11-29T15:44:02.212Z,20.40
2022-11-29T15:45:22.684Z,22.35
2022-11-29T15:46:30.005Z,23.65
2022-11-29T15:47:32.124Z,20.95
2022-11-29T15:48:34.389Z,23.40
2022-11-29T15:49:36.510Z,20.77
2022-11-29T15:50:41.532Z,22.25
2022-11-29T15:51:47.741Z,20.65
2022-11-29T15:52:49.968Z,21.70